createdAt,value
2023-05-18T00:01:14.882Z,7.10
2023-05-18T00:03:43.104Z,6.87
2023-05-18T00:06:10.386Z,7.03
2023-05-18T00:08:38.336Z,7.07
2023-05-18T00:11:06.214Z,6.93
2023-05-18T00:13:33.448Z,7.10
2023-05-18T00:16:00.755Z,7.40
2023-05-18T00:18:28.410Z,7.23
2023-05-18T00:20:58.976Z,7.13
2023-05-18T00:23:31.091Z,5.73
2023-05-18T00:25:58.537Z,7.13
2023-05-18T00:28:25.804Z,7.80
2023-05-18T00:30:53.517Z,6.93
2023-05-18T00:33:21.238Z,7.00
2023-05-18T00:35:48.134Z,6.80
2023-05-18T00:38:18.127Z,6.70
2023-05-18T00:40:45.010Z,6.80
2023-05-18T00:43:12.854Z,7.70
2023-05-18T00:45:39.926Z,7.00
2023-05-18T00:48:07.421Z,7.33
2023-05-18T00:50:34.942Z,8.30
2023-05-18T00:53:01.971Z,6.50
2023-05-18T00:55:29.219Z,7.23
2023-05-18T00:58:02.575Z,6.10
2023-05-18T01:00:29.665Z,6.57
2023-05-18T01:02:57.465Z,5.20
2023-05-18T01:05:24.517Z,6.60
2023-05-18T01:07:51.633Z,6.80
2023-05-18T01:10:19.885Z,6.80
2023-05-18T01:12:50.217Z,8.03
2023-05-18T01:15:19.366Z,7.43
2023-05-18T01:17:47.485Z,5.63
2023-05-18T01:20:20.588Z,6.03
2023-05-18T01:23:06.167Z,6.67
2023-05-18T01:25:48.568Z,8.67
2023-05-18T01:28:18.412Z,7.20
2023-05-18T01:30:46.071Z,7.27
2023-05-18T01:33:13.522Z,6.63
2023-05-18T01:35:48.432Z,7.73
2023-05-18T01:38:17.951Z,8.17
2023-05-18T01:40:54.786Z,6.20
2023-05-18T01:43:24.068Z,7.00
2023-05-18T01:45:54.326Z,6.53
2023-05-18T01:48:21.676Z,8.63
2023-05-18T01:50:48.913Z,7.60
2023-05-18T01:53:32.956Z,7.43
2023-05-18T01:56:00.199Z,7.40
2023-05-18T01:58:28.946Z,7.10
2023-05-18T02:00:56.148Z,7.47
2023-05-18T02:03:23.366Z,6.67
2023-05-18T02:05:50.501Z,7.00
2023-05-18T02:08:17.737Z,7.43
2023-05-18T02:10:45.093Z,8.43
2023-05-18T02:13:11.988Z,7.53
2023-05-18T02:15:38.856Z,7.07
2023-05-18T02:18:06.000Z,7.00
2023-05-18T02:20:33.777Z,7.17
2023-05-18T02:23:00.748Z,8.70
2023-05-18T02:25:27.867Z,9.27
2023-05-18T02:27:55.068Z,10.07
2023-05-18T02:30:22.077Z,8.87
2023-05-18T02:32:50.650Z,8.90
2023-05-18T02:35:20.766Z,8.67
2023-05-18T02:37:50.122Z,7.93
2023-05-18T02:40:17.164Z,8.60
2023-05-18T02:42:44.051Z,7.70
2023-05-18T02:45:11.423Z,8.47
2023-05-18T02:47:39.629Z,9.83
2023-05-18T02:50:07.098Z,10.47
2023-05-18T02:52:34.233Z,9.03
2023-05-18T02:55:01.333Z,9.17
2023-05-18T02:57:47.213Z,8.77
2023-05-18T03:00:19.711Z,9.03
2023-05-18T03:02:48.656Z,8.13
2023-05-18T03:05:23.842Z,8.47
2023-05-18T03:07:51.268Z,8.20
2023-05-18T03:10:23.666Z,8.87
2023-05-18T03:12:50.673Z,8.00
2023-05-18T03:15:17.800Z,8.53
2023-05-18T03:17:45.122Z,9.33
2023-05-18T03:20:16.723Z,9.03
2023-05-18T03:22:43.743Z,9.17
2023-05-18T03:25:10.869Z,8.90
2023-05-18T03:27:38.217Z,9.53
2023-05-18T03:30:05.830Z,10.37
2023-05-18T03:32:33.565Z,8.30
2023-05-18T03:35:01.290Z,9.23
2023-05-18T03:37:28.987Z,9.13
2023-05-18T03:39:59.377Z,9.17
2023-05-18T03:42:27.205Z,8.80
2023-05-18T03:44:54.458Z,9.57
2023-05-18T03:47:22.311Z,8.53
2023-05-18T03:49:49.419Z,9.37
2023-05-18T03:52:22.314Z,11.00
2023-05-18T03:54:49.892Z,10.87
2023-05-18T03:57:19.886Z,8.57
2023-05-18T03:59:47.001Z,10.87
2023-05-18T04:02:16.733Z,10.40
2023-05-18T04:04:46.056Z,9.90
2023-05-18T04:07:16.723Z,12.00
2023-05-18T04:09:44.263Z,9.50
2023-05-18T04:12:11.263Z,9.90
2023-05-18T04:14:38.180Z,9.50
2023-05-18T04:17:06.593Z,11.70
2023-05-18T04:19:34.253Z,11.13
2023-05-18T04:22:04.665Z,9.57
2023-05-18T04:24:33.237Z,9.73
2023-05-18T04:27:04.676Z,10.87
2023-05-18T04:29:31.587Z,10.23
2023-05-18T04:32:02.456Z,10.07
2023-05-18T04:34:29.888Z,9.47
2023-05-18T04:36:58.811Z,9.13
2023-05-18T04:39:26.039Z,8.83
2023-05-18T04:41:58.593Z,10.37
2023-05-18T04:44:27.735Z,8.07
2023-05-18T04:46:56.408Z,11.33
2023-05-18T04:49:26.212Z,9.60
2023-05-18T04:51:56.158Z,10.00
2023-05-18T04:54:24.274Z,10.83
2023-05-18T04:56:51.864Z,9.63
2023-05-18T04:59:19.589Z,10.40
2023-05-18T05:01:46.919Z,8.30
2023-05-18T05:04:13.948Z,10.77
2023-05-18T05:06:41.456Z,9.70
2023-05-18T05:09:08.317Z,9.83
2023-05-18T05:11:35.203Z,8.40
2023-05-18T05:14:03.093Z,9.30
2023-05-18T05:16:30.206Z,9.10
2023-05-18T05:18:57.315Z,9.17
2023-05-18T05:21:24.405Z,10.13
2023-05-18T05:23:51.882Z,9.13
2023-05-18T05:26:19.613Z,8.87
2023-05-18T05:28:46.488Z,8.07
2023-05-18T05:31:14.016Z,9.90
2023-05-18T05:33:41.336Z,9.03
2023-05-18T05:36:08.821Z,8.33
2023-05-18T05:38:35.935Z,7.37
2023-05-18T05:41:02.945Z,7.17
2023-05-18T05:43:29.829Z,6.87
2023-05-18T05:45:56.728Z,6.60
2023-05-18T05:48:24.311Z,6.27
2023-05-18T05:50:51.441Z,6.70
2023-05-18T05:53:19.891Z,6.77
2023-05-18T05:55:48.320Z,7.53
2023-05-18T05:58:17.021Z,5.77
2023-05-18T06:00:51.081Z,6.03
2023-05-18T06:03:18.285Z,5.30
2023-05-18T06:05:46.540Z,5.17
2023-05-18T06:08:15.839Z,6.20
2023-05-18T06:10:43.056Z,5.53
2023-05-18T06:13:10.058Z,6.60
2023-05-18T06:15:45.583Z,6.60
2023-05-18T06:18:13.761Z,5.10
2023-05-18T06:20:40.913Z,5.17
2023-05-18T06:23:07.821Z,5.23
2023-05-18T06:26:04.199Z,4.97
2023-05-18T06:28:51.590Z,5.20
2023-05-18T06:31:28.884Z,5.87
2023-05-18T06:34:11.996Z,5.87
2023-05-18T06:36:39.160Z,5.27
2023-05-18T06:39:07.081Z,5.23
2023-05-18T06:41:34.346Z,5.80
2023-05-18T06:44:02.201Z,4.87
2023-05-18T06:46:37.407Z,5.77
2023-05-18T06:49:20.817Z,4.70
2023-05-18T06:51:47.923Z,4.77
2023-05-18T06:54:15.154Z,5.33
2023-05-18T06:56:42.633Z,5.83
2023-05-18T06:59:09.746Z,6.40
2023-05-18T07:01:37.158Z,5.27
2023-05-18T07:04:04.975Z,5.03
2023-05-18T07:06:32.212Z,5.57
2023-05-18T07:08:59.320Z,5.50
2023-05-18T07:11:29.551Z,4.90
2023-05-18T07:13:56.931Z,5.80
2023-05-18T07:16:24.000Z,5.23
2023-05-18T07:18:51.125Z,5.20
2023-05-18T07:21:19.251Z,5.90
2023-05-18T07:23:46.383Z,7.00
2023-05-18T07:26:13.380Z,6.03
2023-05-18T07:28:40.533Z,7.77
2023-05-18T07:31:07.521Z,6.10
2023-05-18T07:33:34.754Z,5.57
2023-05-18T07:36:01.750Z,6.30
2023-05-18T07:38:28.747Z,6.07
2023-05-18T07:40:56.002Z,6.70
2023-05-18T07:43:22.999Z,5.67
2023-05-18T07:45:50.011Z,6.13
2023-05-18T07:48:18.314Z,6.07
2023-05-18T07:50:45.229Z,6.03
2023-05-18T07:53:12.135Z,5.50
2023-05-18T07:55:39.208Z,8.47
2023-05-18T07:58:06.938Z,5.60
2023-05-18T08:00:34.181Z,6.40
2023-05-18T08:03:01.352Z,6.00
2023-05-18T08:05:29.009Z,6.50
2023-05-18T08:07:56.267Z,5.37
2023-05-18T08:10:23.155Z,6.27
2023-05-18T08:12:50.153Z,6.47
2023-05-18T08:15:17.171Z,5.87
2023-05-18T08:17:44.312Z,5.60
2023-05-18T08:20:11.536Z,5.93
2023-05-18T08:22:38.513Z,5.20
2023-05-18T08:25:05.650Z,5.93
2023-05-18T08:27:32.634Z,5.33
2023-05-18T08:29:59.640Z,5.63
2023-05-18T08:32:26.890Z,5.80
2023-05-18T08:34:54.367Z,6.10
2023-05-18T08:37:22.454Z,5.57
2023-05-18T08:39:49.572Z,6.20
2023-05-18T08:42:37.800Z,5.20
2023-05-18T08:45:35.801Z,5.63
2023-05-18T08:48:03.345Z,5.60
2023-05-18T08:50:31.559Z,4.50
2023-05-18T08:53:01.384Z,5.77
2023-05-18T08:55:29.348Z,4.50
2023-05-18T08:58:00.306Z,5.27
2023-05-18T09:00:27.314Z,6.43
2023-05-18T09:02:54.571Z,5.23
2023-05-18T09:05:23.191Z,5.83
2023-05-18T09:07:51.274Z,5.10
2023-05-18T09:10:18.642Z,4.90
2023-05-18T09:12:47.097Z,5.17
2023-05-18T09:15:16.017Z,5.10
2023-05-18T09:17:43.035Z,5.40
2023-05-18T09:20:10.383Z,5.30
2023-05-18T09:22:37.252Z,5.40
2023-05-18T09:25:06.075Z,6.10
2023-05-18T09:27:33.088Z,4.63
2023-05-18T09:29:59.948Z,5.13
2023-05-18T09:32:27.129Z,5.60
2023-05-18T09:34:54.187Z,4.90
2023-05-18T09:37:21.675Z,5.63
2023-05-18T09:39:58.413Z,5.20
2023-05-18T09:42:35.244Z,4.60
2023-05-18T09:45:02.596Z,6.50
2023-05-18T09:47:29.636Z,5.77
2023-05-18T09:49:57.091Z,4.93
2023-05-18T09:52:24.216Z,4.90
2023-05-18T09:55:04.775Z,5.20
2023-05-18T09:57:31.892Z,5.43
2023-05-18T10:00:10.562Z,5.47
2023-05-18T10:02:41.564Z,4.30
2023-05-18T10:05:23.860Z,4.80
2023-05-18T10:07:51.227Z,5.47
2023-05-18T10:10:20.037Z,5.00
2023-05-18T10:12:47.042Z,6.30
2023-05-18T10:15:18.381Z,4.90
2023-05-18T10:17:46.737Z,4.97
2023-05-18T10:20:20.894Z,4.87
2023-05-18T10:22:48.480Z,4.73
2023-05-18T10:25:19.958Z,5.10
2023-05-18T10:27:47.901Z,4.53
2023-05-18T10:30:15.969Z,4.33
2023-05-18T10:32:43.247Z,4.73
2023-05-18T10:35:10.708Z,4.80
2023-05-18T10:37:43.580Z,4.83
2023-05-18T10:40:17.604Z,6.13
2023-05-18T10:42:46.116Z,4.73
2023-05-18T10:45:13.696Z,5.70
2023-05-18T10:47:42.581Z,4.73
2023-05-18T10:50:10.129Z,4.80
2023-05-18T10:52:37.826Z,5.27
2023-05-18T10:55:06.151Z,5.43
2023-05-18T10:57:51.765Z,4.63
2023-05-18T11:00:19.365Z,4.73
2023-05-18T11:02:46.866Z,5.47
2023-05-18T11:05:13.828Z,5.27
2023-05-18T11:07:41.716Z,4.70
2023-05-18T11:10:09.774Z,5.57
2023-05-18T11:12:38.347Z,4.23
2023-05-18T11:15:08.087Z,5.37
2023-05-18T11:17:34.942Z,4.60
2023-05-18T11:20:13.083Z,5.37
2023-05-18T11:22:58.266Z,4.73
2023-05-18T11:25:28.346Z,4.97
2023-05-18T11:27:57.066Z,6.00
2023-05-18T11:30:33.340Z,4.80
2023-05-18T11:33:14.859Z,6.07
2023-05-18T11:36:15.443Z,4.60
2023-05-18T11:38:53.120Z,4.80
2023-05-18T11:41:36.334Z,5.77
2023-05-18T11:44:06.786Z,5.37
2023-05-18T11:46:34.068Z,4.73
2023-05-18T11:49:05.004Z,5.13
2023-05-18T11:51:32.855Z,5.43
2023-05-18T11:54:00.091Z,4.93
2023-05-18T11:56:27.101Z,5.40
2023-05-18T11:59:13.294Z,5.20
2023-05-18T12:01:41.497Z,4.40
2023-05-18T12:04:09.072Z,5.33
2023-05-18T12:06:37.804Z,5.37
2023-05-18T12:09:05.853Z,6.00
2023-05-18T12:11:33.244Z,4.00
2023-05-18T12:14:01.176Z,4.87
2023-05-18T12:16:29.334Z,5.87
2023-05-18T12:18:59.181Z,4.97
2023-05-18T12:21:26.036Z,5.00
2023-05-18T12:24:02.217Z,4.73
2023-05-18T12:26:29.388Z,4.93
2023-05-18T12:28:56.760Z,4.93
2023-05-18T12:31:23.563Z,5.10
2023-05-18T12:33:51.400Z,5.03
2023-05-18T12:36:18.251Z,5.17
2023-05-18T12:38:48.607Z,5.00
2023-05-18T12:41:22.343Z,5.17
2023-05-18T12:43:49.571Z,4.93
2023-05-18T12:46:16.513Z,5.97
2023-05-18T12:48:49.589Z,4.80
2023-05-18T12:51:19.954Z,4.47
2023-05-18T12:53:48.657Z,5.40
2023-05-18T12:56:15.504Z,5.50
2023-05-18T12:58:54.757Z,5.33
2023-05-18T13:01:21.810Z,6.20
2023-05-18T13:03:55.317Z,4.17
2023-05-18T13:06:22.363Z,5.10
2023-05-18T13:08:49.244Z,6.07
2023-05-18T13:11:16.764Z,4.37
2023-05-18T13:13:59.025Z,4.10
2023-05-18T13:16:26.497Z,4.53
2023-05-18T13:19:00.562Z,6.57
2023-05-18T13:21:27.539Z,4.60
2023-05-18T13:23:54.705Z,5.40
2023-05-18T13:26:22.287Z,5.40
2023-05-18T13:28:50.223Z,4.43
2023-05-18T13:31:17.279Z,4.27
2023-05-18T13:33:44.110Z,4.53
2023-05-18T13:36:11.237Z,5.10
2023-05-18T13:38:38.366Z,4.30
2023-05-18T13:41:05.968Z,5.10
2023-05-18T13:43:33.075Z,4.93
2023-05-18T13:46:00.209Z,4.33
2023-05-18T13:48:29.850Z,4.07
2023-05-18T13:50:56.896Z,4.43
2023-05-18T13:53:23.856Z,4.30
2023-05-18T13:55:50.617Z,3.80
2023-05-18T13:58:18.211Z,4.43
2023-05-18T14:00:46.585Z,4.23
2023-05-18T14:03:15.406Z,4.43
2023-05-18T14:05:42.591Z,4.27
2023-05-18T14:08:09.717Z,3.90
2023-05-18T14:10:36.598Z,4.70
2023-05-18T14:13:03.584Z,4.30
2023-05-18T14:15:30.701Z,3.80
2023-05-18T14:17:57.630Z,5.47
2023-05-18T14:20:24.472Z,3.97
2023-05-18T14:22:51.488Z,4.70
2023-05-18T14:25:18.729Z,4.53
2023-05-18T14:27:45.716Z,4.23
2023-05-18T14:30:13.235Z,4.10
2023-05-18T14:32:40.235Z,3.93
2023-05-18T14:35:07.329Z,5.27
2023-05-18T14:37:34.331Z,4.30
2023-05-18T14:40:01.222Z,4.43
2023-05-18T14:42:28.112Z,4.47
2023-05-18T14:44:54.970Z,4.17
2023-05-18T14:47:22.576Z,4.37
2023-05-18T14:49:49.460Z,3.93
2023-05-18T14:52:16.478Z,4.70
2023-05-18T14:54:43.595Z,4.20
2023-05-18T14:57:10.959Z,3.57
2023-05-18T14:59:37.832Z,4.00
2023-05-18T15:02:05.144Z,4.67
2023-05-18T15:04:32.201Z,3.97
2023-05-18T15:06:59.093Z,4.03
2023-05-18T15:09:26.977Z,3.43
2023-05-18T15:11:54.162Z,4.93
2023-05-18T15:14:21.050Z,4.07
2023-05-18T15:16:48.301Z,3.93
2023-05-18T15:19:15.545Z,4.13
2023-05-18T15:21:44.894Z,4.60
2023-05-18T15:24:11.944Z,4.80
2023-05-18T15:26:39.066Z,4.77
2023-05-18T15:29:06.027Z,4.00
2023-05-18T15:31:33.849Z,4.20
2023-05-18T15:34:00.673Z,4.47
2023-05-18T15:36:27.558Z,3.83
2023-05-18T15:38:54.440Z,4.80
2023-05-18T15:41:22.165Z,4.30
2023-05-18T15:43:49.153Z,4.50
2023-05-18T15:46:16.192Z,4.50
2023-05-18T15:48:43.077Z,3.13
2023-05-18T15:51:09.966Z,4.30
2023-05-18T15:53:36.854Z,4.90
2023-05-18T15:56:03.683Z,3.93
2023-05-18T15:58:30.699Z,5.23
2023-05-18T16:00:57.916Z,4.07
2023-05-18T16:03:25.065Z,4.60
2023-05-18T16:05:52.067Z,4.10
2023-05-18T16:08:20.521Z,5.00
2023-05-18T16:10:47.403Z,4.73
2023-05-18T16:13:14.883Z,4.43
2023-05-18T16:15:42.004Z,3.80
2023-05-18T16:18:09.074Z,4.37
2023-05-18T16:20:36.008Z,4.23
2023-05-18T16:23:02.898Z,4.60
2023-05-18T16:25:30.007Z,5.13
2023-05-18T16:27:57.013Z,4.00
2023-05-18T16:30:23.906Z,4.23
2023-05-18T16:32:50.858Z,4.63
2023-05-18T16:35:17.652Z,4.37
2023-05-18T16:37:44.541Z,3.70
2023-05-18T16:40:12.137Z,3.80
2023-05-18T16:42:39.029Z,3.67
2023-05-18T16:45:06.089Z,3.50
2023-05-18T16:47:33.065Z,3.60
2023-05-18T16:50:00.577Z,4.70
2023-05-18T16:52:27.742Z,4.10
2023-05-18T16:54:54.795Z,4.77
2023-05-18T16:57:22.258Z,4.67
2023-05-18T16:59:49.242Z,4.90
2023-05-18T17:02:17.435Z,3.47
2023-05-18T17:04:49.804Z,4.43
2023-05-18T17:07:16.967Z,4.07
2023-05-18T17:09:44.203Z,4.93
2023-05-18T17:12:11.538Z,3.40
2023-05-18T17:14:38.340Z,4.37
2023-05-18T17:17:06.017Z,3.90
2023-05-18T17:19:34.788Z,4.60
2023-05-18T17:22:02.226Z,4.07
2023-05-18T17:24:29.220Z,4.20
2023-05-18T17:26:56.243Z,4.97
2023-05-18T17:29:23.103Z,3.80
2023-05-18T17:31:49.923Z,5.00
2023-05-18T17:34:16.747Z,5.53
2023-05-18T17:36:43.536Z,4.33
2023-05-18T17:39:10.426Z,4.10
2023-05-18T17:41:37.267Z,4.97
2023-05-18T17:44:04.290Z,4.13
2023-05-18T17:46:31.465Z,4.13
2023-05-18T17:48:58.506Z,5.57
2023-05-18T17:51:25.405Z,4.97
2023-05-18T17:53:52.162Z,5.00
2023-05-18T17:56:18.941Z,4.03
2023-05-18T17:58:45.939Z,4.37
2023-05-18T18:01:13.110Z,4.73
2023-05-18T18:03:40.107Z,5.30
2023-05-18T18:06:07.317Z,4.47
2023-05-18T18:08:34.198Z,4.40
2023-05-18T18:11:01.057Z,4.43
2023-05-18T18:13:28.201Z,3.87
2023-05-18T18:15:55.490Z,4.30
2023-05-18T18:18:23.511Z,4.57
2023-05-18T18:20:51.878Z,4.83
2023-05-18T18:23:18.845Z,4.00
2023-05-18T18:25:45.961Z,5.00
2023-05-18T18:28:15.251Z,4.57
2023-05-18T18:30:44.216Z,4.20
2023-05-18T18:33:11.881Z,5.40
2023-05-18T18:35:38.997Z,3.80
2023-05-18T18:38:06.279Z,3.70
2023-05-18T18:40:34.309Z,3.80
2023-05-18T18:43:01.479Z,4.37
2023-05-18T18:45:30.885Z,3.47
2023-05-18T18:47:58.413Z,4.47
2023-05-18T18:50:27.988Z,3.70
2023-05-18T18:52:55.467Z,3.90
2023-05-18T18:55:24.411Z,5.00
2023-05-18T18:57:58.710Z,5.33
2023-05-18T19:00:25.845Z,3.33
2023-05-18T19:02:52.909Z,4.63
2023-05-18T19:05:23.425Z,4.80
2023-05-18T19:07:55.224Z,4.10
2023-05-18T19:10:22.983Z,3.83
2023-05-18T19:12:50.113Z,3.33
2023-05-18T19:15:17.090Z,4.73
2023-05-18T19:17:52.227Z,5.17
2023-05-18T19:20:19.775Z,5.30
2023-05-18T19:22:46.616Z,4.57
2023-05-18T19:25:13.501Z,4.73
2023-05-18T19:27:40.643Z,3.80
2023-05-18T19:30:08.002Z,4.80
2023-05-18T19:32:34.930Z,5.30
2023-05-18T19:35:05.173Z,5.60
2023-05-18T19:37:32.371Z,4.73
2023-05-18T19:39:59.236Z,5.27
2023-05-18T19:42:26.389Z,5.50
2023-05-18T19:44:53.366Z,5.87
2023-05-18T19:47:20.729Z,5.43
2023-05-18T19:49:47.990Z,5.30
2023-05-18T19:52:15.949Z,5.83
2023-05-18T19:54:43.049Z,5.30
2023-05-18T19:57:10.184Z,4.50
2023-05-18T19:59:37.529Z,4.87
2023-05-18T20:02:07.660Z,4.73
2023-05-18T20:04:34.801Z,6.10
2023-05-18T20:07:01.923Z,5.47
2023-05-18T20:09:29.020Z,4.87
2023-05-18T20:11:58.919Z,5.47
2023-05-18T20:14:27.035Z,5.30
2023-05-18T20:16:56.289Z,4.93
2023-05-18T20:19:23.499Z,5.17
2023-05-18T20:21:50.756Z,5.63
2023-05-18T20:24:18.129Z,5.80
2023-05-18T20:26:45.386Z,6.57
2023-05-18T20:29:13.682Z,4.80
2023-05-18T20:31:40.649Z,5.17
2023-05-18T20:34:07.936Z,5.47
2023-05-18T20:36:36.058Z,6.23
2023-05-18T20:39:03.980Z,5.53
2023-05-18T20:41:31.217Z,4.80
2023-05-18T20:44:02.235Z,5.80
2023-05-18T20:46:31.226Z,5.63
2023-05-18T20:48:58.379Z,4.60
2023-05-18T20:51:26.077Z,5.30
2023-05-18T20:53:53.192Z,5.97
2023-05-18T20:56:21.945Z,5.53
2023-05-18T20:58:50.197Z,5.90
2023-05-18T21:01:18.632Z,6.23
2023-05-18T21:03:46.041Z,5.03
2023-05-18T21:06:14.136Z,5.93
2023-05-18T21:08:42.649Z,5.60
2023-05-18T21:11:10.027Z,5.47
2023-05-18T21:13:37.359Z,5.70
2023-05-18T21:16:06.720Z,6.80
2023-05-18T21:18:34.722Z,6.30
2023-05-18T21:21:02.109Z,7.23
2023-05-18T21:23:30.205Z,5.30
2023-05-18T21:25:57.297Z,6.70
2023-05-18T21:28:27.084Z,5.90
2023-05-18T21:30:57.191Z,6.53
2023-05-18T21:33:24.115Z,6.37
2023-05-18T21:35:51.091Z,6.63
2023-05-18T21:38:17.978Z,7.33
2023-05-18T21:40:44.842Z,6.33
2023-05-18T21:43:12.804Z,6.30
2023-05-18T21:45:39.988Z,8.47
2023-05-18T21:48:07.092Z,7.80
2023-05-18T21:50:36.928Z,7.33
2023-05-18T21:53:03.811Z,5.93
2023-05-18T21:55:31.663Z,7.27
2023-05-18T21:57:58.547Z,6.77
2023-05-18T22:00:27.179Z,7.90
2023-05-18T22:02:54.370Z,6.50
2023-05-18T22:05:21.383Z,7.70
2023-05-18T22:07:48.724Z,7.67
2023-05-18T22:10:15.955Z,8.87
2023-05-18T22:12:43.736Z,7.60
2023-05-18T22:15:10.838Z,8.30
2023-05-18T22:17:38.861Z,7.27
2023-05-18T22:20:07.198Z,8.93
2023-05-18T22:22:34.242Z,8.90
2023-05-18T22:25:01.212Z,7.83
2023-05-18T22:27:28.217Z,8.47
2023-05-18T22:29:55.573Z,8.23
2023-05-18T22:32:22.646Z,8.80
2023-05-18T22:34:49.573Z,8.13
2023-05-18T22:37:16.566Z,7.13
2023-05-18T22:39:43.806Z,6.57
2023-05-18T22:42:10.943Z,7.63
2023-05-18T22:44:38.061Z,6.60
2023-05-18T22:47:05.306Z,6.83
2023-05-18T22:49:32.689Z,7.47
2023-05-18T22:52:00.077Z,8.77
2023-05-18T22:54:27.030Z,7.03
2023-05-18T22:56:53.911Z,7.93
2023-05-18T22:59:20.905Z,7.60
2023-05-18T23:01:52.708Z,8.37
2023-05-18T23:04:19.845Z,8.23
2023-05-18T23:06:49.746Z,8.67
2023-05-18T23:09:17.084Z,7.60
2023-05-18T23:11:48.437Z,7.63
2023-05-18T23:14:15.426Z,7.60
2023-05-18T23:16:43.041Z,8.43
2023-05-18T23:19:12.688Z,7.40
2023-05-18T23:21:40.154Z,8.07
2023-05-18T23:24:07.975Z,7.17
2023-05-18T23:26:34.992Z,7.40
2023-05-18T23:29:02.397Z,7.47
2023-05-18T23:31:29.343Z,7.37
2023-05-18T23:33:56.238Z,7.37
2023-05-18T23:36:27.621Z,7.10
2023-05-18T23:38:56.714Z,7.43
2023-05-18T23:41:24.202Z,7.63
2023-05-18T23:43:51.444Z,8.20
2023-05-18T23:46:18.553Z,7.83
2023-05-18T23:48:46.882Z,9.47
2023-05-18T23:51:16.655Z,8.53
2023-05-18T23:53:47.499Z,8.33
2023-05-18T23:56:14.733Z,8.33
2023-05-18T23:58:42.211Z,9.37
